createdAt,value
2023-01-17T00:00:08.959Z,971.78
2023-01-17T00:01:08.884Z,971.85
2023-01-17T00:02:08.849Z,971.81
2023-01-17T00:03:08.865Z,971.86
2023-01-17T00:04:09.973Z,971.76
2023-01-17T00:05:08.920Z,971.81
2023-01-17T00:06:08.800Z,971.86
2023-01-17T00:07:08.800Z,971.82
2023-01-17T00:08:08.816Z,971.83
2023-01-17T00:09:08.780Z,971.78
2023-01-17T00:10:08.761Z,971.79
2023-01-17T00:11:09.058Z,971.82
2023-01-17T00:12:08.730Z,971.86
2023-01-17T00:13:08.756Z,971.80
2023-01-17T00:14:08.827Z,971.79
2023-01-17T00:15:08.661Z,971.79
2023-01-17T00:16:08.700Z,971.82
2023-01-17T00:17:08.649Z,971.85
2023-01-17T00:18:08.674Z,971.86
2023-01-17T00:19:08.752Z,971.87
2023-01-17T00:20:09.845Z,971.86
2023-01-17T00:21:08.626Z,971.87
2023-01-17T00:22:08.631Z,971.95
2023-01-17T00:23:09.550Z,971.87
2023-01-17T00:24:08.647Z,971.90
2023-01-17T00:25:08.556Z,971.95
2023-01-17T00:26:08.605Z,971.88
2023-01-17T00:27:08.713Z,971.90
2023-01-17T00:28:08.573Z,971.91
2023-01-17T00:29:08.497Z,971.91
2023-01-17T00:30:08.740Z,971.91
2023-01-17T00:31:08.536Z,971.94
2023-01-17T00:32:08.444Z,971.96
2023-01-17T00:33:08.495Z,972.01
2023-01-17T00:34:08.435Z,971.97
2023-01-17T00:35:08.417Z,972.01
2023-01-17T00:36:09.364Z,972.01
2023-01-17T00:37:08.550Z,972.01
2023-01-17T00:38:08.427Z,972.03
2023-01-17T00:39:08.440Z,972.07
2023-01-17T00:40:08.397Z,972.04
2023-01-17T00:41:08.346Z,972.07
2023-01-17T00:42:08.945Z,972.05
2023-01-17T00:43:09.173Z,972.12
2023-01-17T00:44:08.515Z,972.05
2023-01-17T00:45:08.527Z,972.24
2023-01-17T00:46:08.467Z,972.23
2023-01-17T00:47:08.272Z,972.18
2023-01-17T00:48:08.271Z,972.14
2023-01-17T00:49:09.227Z,972.21
2023-01-17T00:50:09.012Z,972.25
2023-01-17T00:51:08.272Z,972.23
2023-01-17T00:52:08.220Z,972.22
2023-01-17T00:53:08.196Z,972.14
2023-01-17T00:54:08.218Z,972.20
2023-01-17T00:55:08.177Z,972.25
2023-01-17T00:56:08.177Z,972.20
2023-01-17T00:57:08.216Z,972.24
2023-01-17T00:58:08.148Z,972.24
2023-01-17T00:59:08.116Z,972.18
2023-01-17T01:00:08.187Z,972.23
2023-01-17T01:01:08.239Z,972.25
2023-01-17T01:02:08.305Z,972.30
2023-01-17T01:03:08.176Z,972.28
2023-01-17T01:04:08.229Z,972.24
2023-01-17T01:05:08.095Z,972.27
2023-01-17T01:06:08.071Z,972.24
2023-01-17T01:07:08.063Z,972.25
2023-01-17T01:08:08.037Z,972.26
2023-01-17T01:09:07.995Z,972.24
2023-01-17T01:10:08.379Z,972.24
2023-01-17T01:11:08.169Z,972.24
2023-01-17T01:12:08.153Z,972.25
2023-01-17T01:13:07.956Z,972.23
2023-01-17T01:14:07.930Z,972.21
2023-01-17T01:15:07.921Z,972.24
2023-01-17T01:16:07.979Z,972.23
2023-01-17T01:17:07.898Z,972.23
2023-01-17T01:18:07.888Z,972.27
2023-01-17T01:19:07.869Z,972.28
2023-01-17T01:20:07.860Z,972.31
2023-01-17T01:21:07.808Z,972.29
2023-01-17T01:22:07.860Z,972.31
2023-01-17T01:23:07.819Z,972.31
2023-01-17T01:24:07.819Z,972.33
2023-01-17T01:25:07.770Z,972.32
2023-01-17T01:26:07.761Z,972.30
2023-01-17T01:27:07.807Z,972.31
2023-01-17T01:28:07.791Z,972.28
2023-01-17T01:29:07.734Z,972.32
2023-01-17T01:30:07.744Z,972.32
2023-01-17T01:31:07.798Z,972.33
2023-01-17T01:32:07.721Z,972.34
2023-01-17T01:33:07.792Z,972.32
2023-01-17T01:34:07.725Z,972.34
2023-01-17T01:35:07.813Z,972.33
2023-01-17T01:36:08.610Z,972.39
2023-01-17T01:37:07.621Z,972.38
2023-01-17T01:38:07.621Z,972.37
2023-01-17T01:39:07.722Z,972.43
2023-01-17T01:40:07.645Z,972.43
2023-01-17T01:41:08.756Z,972.43
2023-01-17T01:42:08.546Z,972.41
2023-01-17T01:43:07.612Z,972.41
2023-01-17T01:44:07.504Z,972.47
2023-01-17T01:45:07.551Z,972.44
2023-01-17T01:46:07.492Z,972.43
2023-01-17T01:47:07.548Z,972.42
2023-01-17T01:48:07.462Z,972.45
2023-01-17T01:49:07.471Z,972.40
2023-01-17T01:50:07.424Z,972.43
2023-01-17T01:51:07.437Z,972.45
2023-01-17T01:52:07.443Z,972.45
2023-01-17T01:53:07.452Z,972.45
2023-01-17T01:54:07.408Z,972.44
2023-01-17T01:55:08.916Z,972.47
2023-01-17T01:56:07.513Z,972.44
2023-01-17T01:57:07.865Z,972.44
2023-01-17T01:58:08.777Z,972.47
2023-01-17T01:59:08.560Z,972.38
2023-01-17T02:00:07.543Z,972.44
2023-01-17T02:01:07.865Z,972.48
2023-01-17T02:02:07.469Z,972.46
2023-01-17T02:03:07.277Z,972.44
2023-01-17T02:04:07.414Z,972.50
2023-01-17T02:05:07.288Z,972.46
2023-01-17T02:06:08.217Z,972.51
2023-01-17T02:07:08.213Z,972.53
2023-01-17T02:08:07.296Z,972.48
2023-01-17T02:09:07.231Z,972.50
2023-01-17T02:10:07.208Z,972.54
2023-01-17T02:11:07.189Z,972.54
2023-01-17T02:12:07.174Z,972.49
2023-01-17T02:13:07.211Z,972.50
2023-01-17T02:14:07.188Z,972.52
2023-01-17T02:15:07.168Z,972.51
2023-01-17T02:16:08.638Z,972.52
2023-01-17T02:17:07.109Z,972.52
2023-01-17T02:18:07.729Z,972.53
2023-01-17T02:19:07.061Z,972.53
2023-01-17T02:20:07.922Z,972.59
2023-01-17T02:21:07.334Z,972.58
2023-01-17T02:22:07.051Z,972.55
2023-01-17T02:23:07.030Z,972.57
2023-01-17T02:24:07.099Z,972.58
2023-01-17T02:25:07.775Z,972.57
2023-01-17T02:26:07.012Z,972.58
2023-01-17T02:27:07.187Z,972.51
2023-01-17T02:28:06.983Z,972.61
2023-01-17T02:29:06.992Z,972.56
2023-01-17T02:30:06.914Z,972.68
2023-01-17T02:31:06.972Z,972.69
2023-01-17T02:32:07.248Z,972.68
2023-01-17T02:33:07.832Z,972.66
2023-01-17T02:34:06.859Z,972.67
2023-01-17T02:35:06.882Z,972.76
2023-01-17T02:36:06.900Z,972.81
2023-01-17T02:37:07.131Z,972.74
2023-01-17T02:38:06.810Z,972.79
2023-01-17T02:39:07.031Z,972.77
2023-01-17T02:40:08.287Z,972.81
2023-01-17T02:41:06.836Z,972.76
2023-01-17T02:42:07.270Z,972.87
2023-01-17T02:43:06.790Z,972.82
2023-01-17T02:44:07.224Z,972.87
2023-01-17T02:45:06.751Z,972.88
2023-01-17T02:46:09.563Z,972.96
2023-01-17T02:47:06.703Z,972.92
2023-01-17T02:48:06.719Z,972.96
2023-01-17T02:49:08.215Z,972.91
2023-01-17T02:50:06.797Z,972.93
2023-01-17T02:51:06.724Z,972.95
2023-01-17T02:52:06.954Z,972.92
2023-01-17T02:53:06.663Z,973.00
2023-01-17T02:54:06.726Z,972.98
2023-01-17T02:55:06.673Z,972.99
2023-01-17T02:56:06.723Z,972.98
2023-01-17T02:57:08.047Z,972.93
2023-01-17T02:58:06.632Z,972.95
2023-01-17T02:59:07.541Z,973.00
2023-01-17T03:00:06.891Z,973.08
2023-01-17T03:01:06.571Z,973.05
2023-01-17T03:02:06.880Z,973.03
2023-01-17T03:03:07.497Z,973.05
2023-01-17T03:04:06.587Z,973.05
2023-01-17T03:05:06.516Z,973.10
2023-01-17T03:06:06.541Z,973.07
2023-01-17T03:07:06.485Z,973.14
2023-01-17T03:08:06.475Z,973.12
2023-01-17T03:09:06.423Z,973.13
2023-01-17T03:10:06.449Z,973.14
2023-01-17T03:11:06.418Z,973.14
2023-01-17T03:12:06.526Z,973.17
2023-01-17T03:13:06.376Z,973.19
2023-01-17T03:14:06.394Z,973.14
2023-01-17T03:15:07.376Z,973.15
2023-01-17T03:16:07.337Z,973.26
2023-01-17T03:17:06.451Z,973.27
2023-01-17T03:18:06.376Z,973.29
2023-01-17T03:19:06.356Z,973.31
2023-01-17T03:20:06.304Z,973.28
2023-01-17T03:21:06.258Z,973.37
2023-01-17T03:22:06.274Z,973.37
2023-01-17T03:23:06.276Z,973.36
2023-01-17T03:24:06.538Z,973.23
2023-01-17T03:25:06.197Z,973.33
2023-01-17T03:26:06.378Z,973.29
2023-01-17T03:27:06.180Z,973.30
2023-01-17T03:28:06.166Z,973.33
2023-01-17T03:29:06.158Z,973.34
2023-01-17T03:30:06.191Z,973.38
2023-01-17T03:31:06.797Z,973.34
2023-01-17T03:32:06.159Z,973.38
2023-01-17T03:33:07.186Z,973.31
2023-01-17T03:34:06.067Z,973.41
2023-01-17T03:35:06.166Z,973.37
2023-01-17T03:36:06.250Z,973.42
2023-01-17T03:37:06.110Z,973.41
2023-01-17T03:38:06.072Z,973.44
2023-01-17T03:39:06.097Z,973.45
2023-01-17T03:40:06.049Z,973.53
2023-01-17T03:41:06.024Z,973.49
2023-01-17T03:42:06.034Z,973.48
2023-01-17T03:43:07.447Z,973.57
2023-01-17T03:44:05.956Z,973.67
2023-01-17T03:45:05.968Z,973.70
2023-01-17T03:46:07.200Z,973.66
2023-01-17T03:47:07.373Z,973.69
2023-01-17T03:48:05.909Z,973.78
2023-01-17T03:49:05.968Z,973.74
2023-01-17T03:50:05.950Z,973.73
2023-01-17T03:51:05.991Z,973.74
2023-01-17T03:52:07.341Z,973.82
2023-01-17T03:53:06.549Z,973.89
2023-01-17T03:54:05.870Z,973.83
2023-01-17T03:55:05.848Z,973.91
2023-01-17T03:56:06.002Z,973.89
2023-01-17T03:57:05.814Z,973.95
2023-01-17T03:58:05.821Z,973.93
2023-01-17T03:59:05.801Z,973.98
2023-01-17T04:00:05.884Z,973.99
2023-01-17T04:01:05.849Z,973.96
2023-01-17T04:02:05.833Z,973.96
2023-01-17T04:03:05.783Z,973.99
2023-01-17T04:04:05.885Z,973.95
2023-01-17T04:05:05.692Z,973.88
2023-01-17T04:06:06.578Z,973.92
2023-01-17T04:07:05.779Z,974.02
2023-01-17T04:08:05.691Z,973.99
2023-01-17T04:09:05.870Z,973.98
2023-01-17T04:10:05.782Z,973.97
2023-01-17T04:11:06.617Z,973.99
2023-01-17T04:12:05.715Z,973.92
2023-01-17T04:13:05.609Z,974.01
2023-01-17T04:14:05.570Z,974.00
2023-01-17T04:15:06.734Z,973.99
2023-01-17T04:16:05.583Z,974.05
2023-01-17T04:17:05.553Z,974.06
2023-01-17T04:18:06.453Z,974.05
2023-01-17T04:19:05.541Z,974.01
2023-01-17T04:20:05.660Z,974.02
2023-01-17T04:21:05.696Z,974.00
2023-01-17T04:22:05.579Z,973.98
2023-01-17T04:23:06.485Z,973.99
2023-01-17T04:24:05.479Z,974.09
2023-01-17T04:25:06.176Z,974.02
2023-01-17T04:26:06.377Z,973.99
2023-01-17T04:27:05.600Z,974.00
2023-01-17T04:28:05.544Z,974.03
2023-01-17T04:29:06.425Z,974.01
2023-01-17T04:30:05.392Z,974.03
2023-01-17T04:31:05.447Z,974.05
2023-01-17T04:32:05.484Z,974.07
2023-01-17T04:33:05.423Z,974.07
2023-01-17T04:34:06.814Z,974.06
2023-01-17T04:35:05.410Z,974.11
2023-01-17T04:36:05.329Z,974.07
2023-01-17T04:37:05.277Z,974.07
2023-01-17T04:38:05.272Z,974.11
2023-01-17T04:39:05.280Z,974.18
2023-01-17T04:40:05.229Z,974.13
2023-01-17T04:41:05.245Z,974.16
2023-01-17T04:42:05.737Z,974.22
2023-01-17T04:43:05.207Z,974.10
2023-01-17T04:44:05.368Z,974.21
2023-01-17T04:45:05.217Z,974.17
2023-01-17T04:46:05.251Z,974.18
2023-01-17T04:47:05.299Z,974.16
2023-01-17T04:48:05.148Z,974.14
2023-01-17T04:49:05.159Z,974.18
2023-01-17T04:50:05.334Z,974.24
2023-01-17T04:51:05.091Z,974.21
2023-01-17T04:52:06.026Z,974.26
2023-01-17T04:53:06.160Z,974.24
2023-01-17T04:54:06.021Z,974.23
2023-01-17T04:55:05.084Z,974.29
2023-01-17T04:56:05.283Z,974.32
2023-01-17T04:57:05.063Z,974.29
2023-01-17T04:58:05.040Z,974.27
2023-01-17T04:59:05.158Z,974.28
2023-01-17T05:00:05.010Z,974.33
2023-01-17T05:01:05.030Z,974.32
2023-01-17T05:02:05.064Z,974.26
2023-01-17T05:03:04.959Z,974.35
2023-01-17T05:04:04.928Z,974.33
2023-01-17T05:05:05.877Z,974.33
2023-01-17T05:06:04.930Z,974.34
2023-01-17T05:07:05.135Z,974.37
2023-01-17T05:08:05.382Z,974.40
2023-01-17T05:09:04.872Z,974.42
2023-01-17T05:10:04.883Z,974.44
2023-01-17T05:11:04.845Z,974.45
2023-01-17T05:12:04.940Z,974.46
2023-01-17T05:13:05.124Z,974.48
2023-01-17T05:14:04.797Z,974.44
2023-01-17T05:15:04.817Z,974.49
2023-01-17T05:16:04.856Z,974.50
2023-01-17T05:17:04.782Z,974.50
2023-01-17T05:18:05.509Z,974.53
2023-01-17T05:19:05.729Z,974.51
2023-01-17T05:20:04.779Z,974.57
2023-01-17T05:21:05.768Z,974.63
2023-01-17T05:22:04.740Z,974.61
2023-01-17T05:23:05.844Z,974.67
2023-01-17T05:24:04.669Z,974.72
2023-01-17T05:25:04.799Z,974.72
2023-01-17T05:26:04.838Z,974.73
2023-01-17T05:27:04.665Z,974.76
2023-01-17T05:28:04.683Z,974.77
2023-01-17T05:29:04.664Z,974.78
2023-01-17T05:30:04.591Z,974.72
2023-01-17T05:31:04.635Z,974.76
2023-01-17T05:32:04.580Z,974.81
2023-01-17T05:33:04.835Z,974.81
2023-01-17T05:34:05.276Z,974.84
2023-01-17T05:35:04.595Z,975.00
2023-01-17T05:36:04.885Z,974.84
2023-01-17T05:37:04.642Z,974.82
2023-01-17T05:38:05.427Z,974.88
2023-01-17T05:39:05.426Z,974.92
2023-01-17T05:40:04.603Z,974.91
2023-01-17T05:41:04.524Z,974.87
2023-01-17T05:42:04.432Z,974.96
2023-01-17T05:43:04.579Z,974.90
2023-01-17T05:44:04.633Z,974.86
2023-01-17T05:45:04.495Z,974.64
2023-01-17T05:46:04.432Z,974.92
2023-01-17T05:47:04.404Z,974.88
2023-01-17T05:48:05.379Z,974.99
2023-01-17T05:49:05.413Z,975.04
2023-01-17T05:50:04.912Z,975.03
2023-01-17T05:51:04.352Z,975.03
2023-01-17T05:52:04.368Z,975.09
2023-01-17T05:53:05.500Z,975.08
2023-01-17T05:54:04.348Z,975.12
2023-01-17T05:55:05.214Z,975.15
2023-01-17T05:56:05.278Z,975.18
2023-01-17T05:57:04.317Z,975.15
2023-01-17T05:58:04.344Z,975.18
2023-01-17T05:59:04.273Z,975.25
2023-01-17T06:00:05.068Z,975.33
2023-01-17T06:01:04.596Z,975.34
2023-01-17T06:02:04.310Z,975.44
2023-01-17T06:03:04.200Z,975.42
2023-01-17T06:04:04.974Z,975.41
2023-01-17T06:05:04.257Z,975.45
2023-01-17T06:06:04.128Z,975.51
2023-01-17T06:07:04.149Z,975.55
2023-01-17T06:08:04.220Z,975.64
2023-01-17T06:09:05.011Z,975.54
2023-01-17T06:10:04.083Z,975.58
2023-01-17T06:11:04.111Z,975.59
2023-01-17T06:12:04.294Z,975.65
2023-01-17T06:13:05.016Z,975.66
2023-01-17T06:14:04.145Z,975.64
2023-01-17T06:15:04.947Z,975.68
2023-01-17T06:16:04.361Z,975.70
2023-01-17T06:17:04.006Z,975.86
2023-01-17T06:18:04.282Z,975.83
2023-01-17T06:19:03.973Z,975.88
2023-01-17T06:20:04.182Z,975.92
2023-01-17T06:21:03.940Z,976.02
2023-01-17T06:22:04.061Z,975.99
2023-01-17T06:23:03.959Z,976.00
2023-01-17T06:24:04.402Z,976.00
2023-01-17T06:25:05.010Z,976.10
2023-01-17T06:26:03.993Z,976.05
2023-01-17T06:27:03.875Z,976.06
2023-01-17T06:28:03.949Z,976.11
2023-01-17T06:29:04.039Z,976.18
2023-01-17T06:30:03.904Z,976.14
2023-01-17T06:31:03.974Z,976.19
2023-01-17T06:32:03.831Z,976.23
2023-01-17T06:33:03.844Z,976.30
2023-01-17T06:34:03.828Z,976.34
2023-01-17T06:35:03.881Z,976.32
2023-01-17T06:36:03.759Z,976.36
2023-01-17T06:37:04.723Z,976.52
2023-01-17T06:38:03.799Z,976.44
2023-01-17T06:39:03.800Z,976.45
2023-01-17T06:40:04.440Z,976.51
2023-01-17T06:41:03.908Z,976.41
2023-01-17T06:42:03.769Z,976.44
2023-01-17T06:43:03.658Z,976.41
2023-01-17T06:44:03.742Z,976.56
2023-01-17T06:45:03.716Z,976.54
2023-01-17T06:46:04.572Z,976.59
2023-01-17T06:47:03.679Z,976.59
2023-01-17T06:48:03.713Z,976.67
2023-01-17T06:49:03.644Z,976.61
2023-01-17T06:50:04.044Z,976.72
2023-01-17T06:51:03.708Z,976.69
2023-01-17T06:52:03.541Z,976.70
2023-01-17T06:53:04.521Z,976.75
2023-01-17T06:54:03.532Z,976.86
2023-01-17T06:55:03.510Z,976.88
2023-01-17T06:56:03.658Z,976.88
2023-01-17T06:57:03.868Z,976.96
2023-01-17T06:58:03.966Z,976.87
2023-01-17T06:59:04.513Z,977.00
2023-01-17T07:00:03.525Z,976.91
2023-01-17T07:01:03.547Z,976.99
2023-01-17T07:02:04.524Z,976.95
2023-01-17T07:03:03.480Z,976.93
2023-01-17T07:04:03.418Z,976.90
2023-01-17T07:05:03.430Z,976.95
2023-01-17T07:06:03.539Z,976.97
2023-01-17T07:07:03.415Z,977.05
2023-01-17T07:08:03.357Z,977.12
2023-01-17T07:09:03.491Z,977.02
2023-01-17T07:10:03.520Z,977.09
2023-01-17T07:11:04.175Z,977.15
2023-01-17T07:12:03.327Z,977.18
2023-01-17T07:13:03.288Z,977.23
2023-01-17T07:14:03.337Z,977.16
2023-01-17T07:15:03.504Z,977.22
2023-01-17T07:16:04.262Z,977.20
2023-01-17T07:17:03.585Z,977.25
2023-01-17T07:18:03.248Z,977.29
2023-01-17T07:19:03.574Z,977.33
2023-01-17T07:20:04.351Z,977.34
2023-01-17T07:21:03.355Z,977.36
2023-01-17T07:22:03.279Z,977.34
2023-01-17T07:23:03.269Z,977.28
2023-01-17T07:24:03.171Z,977.32
2023-01-17T07:25:03.135Z,977.39
2023-01-17T07:26:03.113Z,977.47
2023-01-17T07:27:03.289Z,977.55
2023-01-17T07:28:03.408Z,977.54
2023-01-17T07:29:03.120Z,977.53
2023-01-17T07:30:03.164Z,977.55
2023-01-17T07:31:03.835Z,977.54
2023-01-17T07:32:03.066Z,977.59
2023-01-17T07:33:03.050Z,977.59
2023-01-17T07:34:03.040Z,977.60
2023-01-17T07:35:03.932Z,977.64
2023-01-17T07:36:03.001Z,977.68
2023-01-17T07:37:03.086Z,977.73
2023-01-17T07:38:03.096Z,977.69
2023-01-17T07:39:05.430Z,977.76
2023-01-17T07:40:03.086Z,977.75
2023-01-17T07:41:02.979Z,977.74
2023-01-17T07:42:03.759Z,977.75
2023-01-17T07:43:03.093Z,977.79
2023-01-17T07:44:02.860Z,977.83
2023-01-17T07:45:02.883Z,977.84
2023-01-17T07:46:02.977Z,977.93
2023-01-17T07:47:03.782Z,977.82
2023-01-17T07:48:03.105Z,977.86
2023-01-17T07:49:03.126Z,977.90
2023-01-17T07:50:02.861Z,977.91
2023-01-17T07:51:03.921Z,977.95
2023-01-17T07:52:02.782Z,977.93
2023-01-17T07:53:03.117Z,977.97
2023-01-17T07:54:02.797Z,977.93
2023-01-17T07:55:02.946Z,977.98
2023-01-17T07:56:02.870Z,977.98
2023-01-17T07:57:03.859Z,978.00
2023-01-17T07:58:03.694Z,978.08
2023-01-17T07:59:03.691Z,978.05
2023-01-17T08:00:03.569Z,978.04
2023-01-17T08:01:02.997Z,978.06
2023-01-17T08:02:04.118Z,978.06
2023-01-17T08:03:02.741Z,978.02
2023-01-17T08:04:02.793Z,978.04
2023-01-17T08:05:04.044Z,977.97
2023-01-17T08:06:02.739Z,978.10
2023-01-17T08:07:03.414Z,978.15
2023-01-17T08:08:03.283Z,978.15
2023-01-17T08:09:02.561Z,978.17
2023-01-17T08:10:02.561Z,978.14
2023-01-17T08:11:03.971Z,978.16
2023-01-17T08:12:02.518Z,978.16
2023-01-17T08:13:02.711Z,978.16
2023-01-17T08:14:02.705Z,978.21
2023-01-17T08:15:02.717Z,978.22
2023-01-17T08:16:02.601Z,978.26
2023-01-17T08:17:02.455Z,978.31
2023-01-17T08:18:02.556Z,978.27
2023-01-17T08:19:02.664Z,978.25
2023-01-17T08:20:02.687Z,978.23
2023-01-17T08:21:03.592Z,978.28
2023-01-17T08:22:02.618Z,978.27
2023-01-17T08:23:03.418Z,978.31
2023-01-17T08:24:02.417Z,978.32
2023-01-17T08:25:02.416Z,978.35
2023-01-17T08:26:02.493Z,978.37
2023-01-17T08:27:03.309Z,978.33
2023-01-17T08:28:02.349Z,978.37
2023-01-17T08:29:02.416Z,978.44
2023-01-17T08:30:02.472Z,978.41
2023-01-17T08:31:02.297Z,978.42
2023-01-17T08:32:03.747Z,978.46
2023-01-17T08:33:02.262Z,978.50
2023-01-17T08:34:03.409Z,978.54
2023-01-17T08:35:02.266Z,978.53
2023-01-17T08:36:02.213Z,978.54
2023-01-17T08:37:03.166Z,978.60
2023-01-17T08:38:03.140Z,978.57
2023-01-17T08:39:02.207Z,978.59
2023-01-17T08:40:02.363Z,978.60
2023-01-17T08:41:02.187Z,978.58
2023-01-17T08:42:03.604Z,978.58
2023-01-17T08:43:02.144Z,978.62
2023-01-17T08:44:02.145Z,978.62
2023-01-17T08:45:02.167Z,978.65
2023-01-17T08:46:03.300Z,978.65
2023-01-17T08:47:03.156Z,978.71
2023-01-17T08:48:02.180Z,978.71
2023-01-17T08:49:02.046Z,978.73
2023-01-17T08:50:02.083Z,978.69
2023-01-17T08:51:02.627Z,978.77
2023-01-17T08:52:03.039Z,978.77
2023-01-17T08:53:02.093Z,978.86
2023-01-17T08:54:01.967Z,978.86
2023-01-17T08:55:02.101Z,978.85
2023-01-17T08:56:02.876Z,978.90
2023-01-17T08:57:02.119Z,978.88
2023-01-17T08:58:02.131Z,978.85
2023-01-17T08:59:01.935Z,978.89
2023-01-17T09:00:02.928Z,978.89
2023-01-17T09:01:02.053Z,978.87
2023-01-17T09:02:02.123Z,978.88
2023-01-17T09:03:02.157Z,978.91
2023-01-17T09:04:02.857Z,978.94
2023-01-17T09:05:03.025Z,978.95
2023-01-17T09:06:01.821Z,979.05
2023-01-17T09:07:01.893Z,979.09
2023-01-17T09:08:01.918Z,978.93
2023-01-17T09:09:01.937Z,978.99
2023-01-17T09:10:01.921Z,978.97
2023-01-17T09:11:02.733Z,979.01
2023-01-17T09:12:02.267Z,979.08
2023-01-17T09:13:01.940Z,979.12
2023-01-17T09:14:01.735Z,979.17
2023-01-17T09:15:02.520Z,979.13
2023-01-17T09:16:01.936Z,979.13
2023-01-17T09:17:01.684Z,979.14
2023-01-17T09:18:01.679Z,979.17
2023-01-17T09:19:02.653Z,979.24
2023-01-17T09:20:01.640Z,979.22
2023-01-17T09:21:01.651Z,979.21
2023-01-17T09:22:01.763Z,979.28
2023-01-17T09:23:01.631Z,979.25
2023-01-17T09:24:02.689Z,979.21
2023-01-17T09:25:01.640Z,979.26
2023-01-17T09:26:01.575Z,979.33
2023-01-17T09:27:02.390Z,979.36
2023-01-17T09:28:01.551Z,979.46
2023-01-17T09:29:01.524Z,979.40
2023-01-17T09:30:01.555Z,979.37
2023-01-17T09:31:01.727Z,979.34
2023-01-17T09:32:01.565Z,979.40
2023-01-17T09:33:01.452Z,979.37
2023-01-17T09:34:01.540Z,979.48
2023-01-17T09:35:01.512Z,979.52
2023-01-17T09:36:01.432Z,979.49
2023-01-17T09:37:01.549Z,979.50
2023-01-17T09:38:01.593Z,979.51
2023-01-17T09:39:01.648Z,979.58
2023-01-17T09:40:01.403Z,979.58
2023-01-17T09:41:01.365Z,979.49
2023-01-17T09:42:01.435Z,979.52
2023-01-17T09:43:01.365Z,979.54
2023-01-17T09:44:01.382Z,979.55
2023-01-17T09:45:01.497Z,979.56
2023-01-17T09:46:01.379Z,979.63
2023-01-17T09:47:01.551Z,979.64
2023-01-17T09:48:01.327Z,979.59
2023-01-17T09:49:02.255Z,979.61
2023-01-17T09:50:01.396Z,979.62
2023-01-17T09:51:02.717Z,979.68
2023-01-17T09:52:01.358Z,979.61
2023-01-17T09:53:01.825Z,979.67
2023-01-17T09:54:01.216Z,979.72
2023-01-17T09:55:01.245Z,979.66
2023-01-17T09:56:01.248Z,979.74
2023-01-17T09:57:01.361Z,979.77
2023-01-17T09:58:01.348Z,979.75
2023-01-17T09:59:01.242Z,979.70
2023-01-17T10:00:03.793Z,979.69
2023-01-17T10:01:01.201Z,979.70
2023-01-17T10:02:02.738Z,979.67
2023-01-17T10:03:01.377Z,979.69
2023-01-17T10:04:01.143Z,979.66
2023-01-17T10:05:01.295Z,979.65
2023-01-17T10:06:02.230Z,979.70
2023-01-17T10:07:01.056Z,979.68
2023-01-17T10:08:03.777Z,979.66
2023-01-17T10:09:01.104Z,979.61
2023-01-17T10:10:01.075Z,979.61
2023-01-17T10:11:01.181Z,979.60
2023-01-17T10:12:01.023Z,979.63
2023-01-17T10:13:00.948Z,979.60
2023-01-17T10:14:01.936Z,979.57
2023-01-17T10:15:01.896Z,979.61
2023-01-17T10:16:01.770Z,979.67
2023-01-17T10:17:01.053Z,979.66
2023-01-17T10:18:01.007Z,979.61
2023-01-17T10:19:00.952Z,979.70
2023-01-17T10:20:00.930Z,979.68
2023-01-17T10:21:00.934Z,979.69
2023-01-17T10:22:01.710Z,979.71
2023-01-17T10:23:00.849Z,979.71
2023-01-17T10:24:00.808Z,979.76
2023-01-17T10:25:00.841Z,979.76
2023-01-17T10:26:00.976Z,979.77
2023-01-17T10:27:00.816Z,979.78
2023-01-17T10:28:01.645Z,979.77
2023-01-17T10:29:00.966Z,979.72
2023-01-17T10:30:01.974Z,979.69
2023-01-17T10:31:00.958Z,979.76
2023-01-17T10:32:00.713Z,979.85
2023-01-17T10:33:00.807Z,979.82
2023-01-17T10:34:01.572Z,979.85
2023-01-17T10:35:01.660Z,979.83
2023-01-17T10:36:00.648Z,979.78
2023-01-17T10:37:00.911Z,979.84
2023-01-17T10:38:00.685Z,979.79
2023-01-17T10:39:00.921Z,979.85
2023-01-17T10:40:00.621Z,979.84
2023-01-17T10:41:00.586Z,979.80
2023-01-17T10:42:00.980Z,979.82
2023-01-17T10:43:00.572Z,979.85
2023-01-17T10:44:00.621Z,979.88
2023-01-17T10:45:01.585Z,979.98
2023-01-17T10:46:00.598Z,980.03
2023-01-17T10:47:00.617Z,979.99
2023-01-17T10:48:01.583Z,979.94
2023-01-17T10:49:01.016Z,979.95
2023-01-17T10:50:00.497Z,979.99
2023-01-17T10:51:00.463Z,979.95
2023-01-17T10:52:00.869Z,979.99
2023-01-17T10:53:00.475Z,980.00
2023-01-17T10:54:01.855Z,979.95
2023-01-17T10:55:00.472Z,980.01
2023-01-17T10:56:01.104Z,980.00
2023-01-17T10:57:00.384Z,980.01
2023-01-17T10:58:00.476Z,979.93
2023-01-17T10:59:00.401Z,979.99
2023-01-17T11:00:00.457Z,979.97
2023-01-17T11:01:01.437Z,979.94
2023-01-17T11:02:01.868Z,979.95
2023-01-17T11:03:01.052Z,979.93
2023-01-17T11:04:00.471Z,979.96
2023-01-17T11:05:00.296Z,979.92
2023-01-17T11:06:00.396Z,980.03
2023-01-17T11:07:00.259Z,979.97
2023-01-17T11:08:00.511Z,979.99
2023-01-17T11:09:00.531Z,979.93
2023-01-17T11:10:00.717Z,979.97
2023-01-17T11:11:00.280Z,979.95
2023-01-17T11:12:00.499Z,979.99
2023-01-17T11:13:00.249Z,980.01
2023-01-17T11:14:01.178Z,979.99
2023-01-17T11:15:01.610Z,979.94
2023-01-17T11:16:00.269Z,979.95
2023-01-17T11:17:01.096Z,979.99
2023-01-17T11:18:00.317Z,980.00
2023-01-17T11:19:00.102Z,980.05
2023-01-17T11:20:01.567Z,980.03
2023-01-17T11:21:00.111Z,980.04
2023-01-17T11:22:00.157Z,979.97
2023-01-17T11:23:01.508Z,980.01
2023-01-17T11:24:00.337Z,980.07
2023-01-17T11:25:00.555Z,980.03
2023-01-17T11:26:01.088Z,980.02
2023-01-17T11:27:00.216Z,980.01
2023-01-17T11:28:01.011Z,980.05
2023-01-17T11:29:00.528Z,980.06
2023-01-17T11:30:00.918Z,980.13
2023-01-17T11:31:00.048Z,980.14
2023-01-17T11:32:00.968Z,980.13
2023-01-17T11:32:59.955Z,980.15
2023-01-17T11:33:59.968Z,980.17
2023-01-17T11:34:59.960Z,980.16
2023-01-17T11:35:59.985Z,980.17
2023-01-17T11:36:59.950Z,980.21
2023-01-17T11:37:59.896Z,980.15
2023-01-17T11:39:00.160Z,980.16
2023-01-17T11:39:59.838Z,980.24
2023-01-17T11:41:00.033Z,980.20
2023-01-17T11:42:00.695Z,980.21
2023-01-17T11:42:59.823Z,980.22
2023-01-17T11:43:59.909Z,980.22
2023-01-17T11:44:59.875Z,980.24
2023-01-17T11:45:59.782Z,980.15
2023-01-17T11:47:01.184Z,980.24
2023-01-17T11:47:59.959Z,980.23
2023-01-17T11:49:00.540Z,980.17
2023-01-17T11:50:01.150Z,980.23
2023-01-17T11:50:59.854Z,980.26
2023-01-17T11:52:00.159Z,980.26
2023-01-17T11:52:59.692Z,980.24
2023-01-17T11:53:59.704Z,980.26
2023-01-17T11:55:00.594Z,980.28
2023-01-17T11:55:59.699Z,980.31
2023-01-17T11:56:59.667Z,980.36
2023-01-17T11:57:59.745Z,980.32
2023-01-17T11:58:59.672Z,980.33
2023-01-17T12:00:00.522Z,980.36
2023-01-17T12:01:00.451Z,980.33
2023-01-17T12:01:59.539Z,980.42
2023-01-17T12:02:59.596Z,980.37
2023-01-17T12:03:59.563Z,980.32
2023-01-17T12:04:59.581Z,980.35
2023-01-17T12:05:59.538Z,980.32
2023-01-17T12:07:00.209Z,980.40
2023-01-17T12:07:59.480Z,980.33
2023-01-17T12:08:59.578Z,980.39
2023-01-17T12:09:59.531Z,980.29
2023-01-17T12:11:00.929Z,980.26
2023-01-17T12:11:59.403Z,980.27
2023-01-17T12:12:59.448Z,980.21
2023-01-17T12:13:59.447Z,980.18
2023-01-17T12:14:59.442Z,980.25
2023-01-17T12:15:59.500Z,980.18
2023-01-17T12:16:59.415Z,980.23
2023-01-17T12:17:59.423Z,980.23
2023-01-17T12:18:59.353Z,980.18
2023-01-17T12:19:59.357Z,980.11
2023-01-17T12:21:00.536Z,980.19
2023-01-17T12:22:00.396Z,980.10
2023-01-17T12:22:59.438Z,980.20
2023-01-17T12:23:59.311Z,980.16
2023-01-17T12:24:59.277Z,980.13
2023-01-17T12:25:59.256Z,980.15
2023-01-17T12:26:59.238Z,980.17
2023-01-17T12:27:59.206Z,980.17